Airport Name : Akrotiri

Other Name : Akrotiri

ICAO : LCRA

IATA : AKT

FAA :

Latitude : 34.590416

Longitude : 32.987861

Country : Cyprus

Local Date and Time : 08 Mar 2021 11:55

 

TAF (Terminal Aerodrome Forecast)

TAF LCRA 080735Z 0809/0903 29012KT 9999 FEW025 BECMG 0809/0812 26018KT PROB30 TEMPO 0810/0816 27020G30KT BECMG 0821/0824 29007KT

 

METAR (METeorological Aerodrome Report)

LCRA 080850Z 25017KT 9999 FEW025 19/13 Q1014 NOSIG

LCRA 080750Z 26014KT 9999 FEW020 18/13 Q1014 NOSIG

LCRA 080650Z 27010KT 9999 FEW020 17/12 Q1014 NOSIG

To Charter a Jet Click here.